createdAt,value
2018-05-06T00:00:50.973Z,93.65
2018-05-06T00:01:50.973Z,92.69
2018-05-06T00:02:50.889Z,92.69
2018-05-06T00:03:50.841Z,93.65
2018-05-06T00:04:50.841Z,93.84
2018-05-06T00:05:50.766Z,94.41
2018-05-06T00:06:50.721Z,94.32
2018-05-06T00:07:50.680Z,93.46
2018-05-06T00:08:50.643Z,93.65
2018-05-06T00:09:50.628Z,94.03
2018-05-06T00:10:50.570Z,94.13
2018-05-06T00:11:50.533Z,94.13
2018-05-06T00:12:50.516Z,94.41
2018-05-06T00:13:50.451Z,93.93
2018-05-06T00:14:50.437Z,93.55
2018-05-06T00:15:50.361Z,93.08
2018-05-06T00:16:50.323Z,93.65
2018-05-06T00:17:50.286Z,94.27
2018-05-06T00:18:50.260Z,94.32
2018-05-06T00:19:50.246Z,94.98
2018-05-06T00:20:50.156Z,94.70
2018-05-06T00:21:50.125Z,95.08
2018-05-06T00:22:50.088Z,94.65
2018-05-06T00:23:50.052Z,93.22
2018-05-06T00:24:50.035Z,93.22
2018-05-06T00:25:49.967Z,94.08
2018-05-06T00:26:49.931Z,94.84
2018-05-06T00:27:49.877Z,95.12
2018-05-06T00:28:49.840Z,94.56
2018-05-06T00:29:49.831Z,95.89
2018-05-06T00:30:49.772Z,95.70
2018-05-06T00:31:49.737Z,95.22
2018-05-06T00:32:49.695Z,95.60
2018-05-06T00:33:49.669Z,95.60
2018-05-06T00:34:49.614Z,95.98
2018-05-06T00:35:49.564Z,95.89
2018-05-06T00:36:49.527Z,95.89
2018-05-06T00:37:49.484Z,95.32
2018-05-06T00:38:49.470Z,95.70
2018-05-06T00:39:49.397Z,96.36
2018-05-06T00:40:49.357Z,95.79
2018-05-06T00:41:49.321Z,96.17
2018-05-06T00:42:49.284Z,96.46
2018-05-06T00:43:49.271Z,95.89
2018-05-06T00:44:49.206Z,96.08
2018-05-06T00:45:49.162Z,96.46
2018-05-06T00:46:49.120Z,97.36
2018-05-06T00:47:49.074Z,97.08
2018-05-06T00:48:49.071Z,97.08
2018-05-06T00:49:48.997Z,97.08
2018-05-06T00:50:48.962Z,97.27
2018-05-06T00:51:48.924Z,97.36
2018-05-06T00:52:48.874Z,97.46
2018-05-06T00:53:48.863Z,97.65
2018-05-06T00:54:48.860Z,97.74
2018-05-06T00:55:48.766Z,97.93
2018-05-06T00:56:48.724Z,97.27
2018-05-06T00:57:48.690Z,97.84
2018-05-06T00:58:48.658Z,97.65
2018-05-06T00:59:48.590Z,97.74
2018-05-06T01:00:48.555Z,98.13
2018-05-06T01:01:48.510Z,97.93
2018-05-06T01:02:48.591Z,97.93
2018-05-06T01:03:48.461Z,97.84
2018-05-06T01:04:48.395Z,98.41
2018-05-06T01:05:48.359Z,98.41
2018-05-06T01:06:48.319Z,99.17
2018-05-06T01:07:48.296Z,98.41
2018-05-06T01:08:48.233Z,98.13
2018-05-06T01:09:48.198Z,98.32
2018-05-06T01:10:48.148Z,98.69
2018-05-06T01:11:48.109Z,98.50
2018-05-06T01:12:48.095Z,98.13
2018-05-06T01:13:48.026Z,98.69
2018-05-06T01:14:47.992Z,98.50
2018-05-06T01:15:47.952Z,98.32
2018-05-06T01:16:47.910Z,97.65
2018-05-06T01:17:47.897Z,97.69
2018-05-06T01:18:47.821Z,97.36
2018-05-06T01:19:47.789Z,98.22
2018-05-06T01:20:47.750Z,98.46
2018-05-06T01:21:47.697Z,98.46
2018-05-06T01:22:47.694Z,98.27
2018-05-06T01:23:47.627Z,98.55
2018-05-06T01:24:47.582Z,98.27
2018-05-06T01:25:47.535Z,98.08
2018-05-06T01:26:47.508Z,97.88
2018-05-06T01:27:47.485Z,98.50
2018-05-06T01:28:47.423Z,98.41
2018-05-06T01:29:47.387Z,97.74
2018-05-06T01:30:47.336Z,98.13
2018-05-06T01:31:47.305Z,97.74
2018-05-06T01:32:47.287Z,97.79
2018-05-06T01:33:47.218Z,97.69
2018-05-06T01:34:47.184Z,98.50
2018-05-06T01:35:47.143Z,98.55
2018-05-06T01:36:47.151Z,98.65
2018-05-06T01:37:47.094Z,98.36
2018-05-06T01:38:47.011Z,99.22
2018-05-06T01:39:46.976Z,99.02
2018-05-06T01:40:57.120Z,99.02
2018-05-06T01:41:46.893Z,99.22
2018-05-06T01:42:46.875Z,99.60
2018-05-06T01:43:46.805Z,99.69
2018-05-06T01:44:46.778Z,99.22
2018-05-06T01:45:46.734Z,99.41
2018-05-06T01:46:46.715Z,99.60
2018-05-06T01:47:46.654Z,99.22
2018-05-06T01:48:46.607Z,99.02
2018-05-06T01:49:46.566Z,99.02
2018-05-06T01:50:46.528Z,99.41
2018-05-06T01:51:46.504Z,99.88
2018-05-06T01:52:46.452Z,99.99
2018-05-06T01:53:46.410Z,99.69
2018-05-06T01:54:46.364Z,99.99
2018-05-06T01:55:46.322Z,99.99
2018-05-06T01:56:46.309Z,99.99
2018-05-06T01:57:46.246Z,99.98
2018-05-06T01:58:46.202Z,99.99
2018-05-06T01:59:46.170Z,99.99
2018-05-06T02:00:46.141Z,99.99
2018-05-06T02:01:46.103Z,99.99
2018-05-06T02:02:46.043Z,99.99
2018-05-06T02:03:45.993Z,99.99
2018-05-06T02:04:45.982Z,99.99
2018-05-06T02:05:45.918Z,99.99
2018-05-06T02:06:45.899Z,99.99
2018-05-06T02:07:45.839Z,99.99
2018-05-06T02:08:45.787Z,99.99
2018-05-06T02:09:45.755Z,99.99
2018-05-06T02:10:45.715Z,99.99
2018-05-06T02:11:45.703Z,99.99
2018-05-06T02:12:45.627Z,99.99
2018-05-06T02:13:45.594Z,99.99
2018-05-06T02:14:45.549Z,99.99
2018-05-06T02:15:45.505Z,99.99
2018-05-06T02:16:45.500Z,99.99
2018-05-06T02:17:45.430Z,99.99
2018-05-06T02:18:45.390Z,99.99
2018-05-06T02:19:45.352Z,99.99
2018-05-06T02:20:45.329Z,99.99
2018-05-06T02:21:45.269Z,99.99
2018-05-06T02:22:45.226Z,99.99
2018-05-06T02:23:45.183Z,99.99
2018-05-06T02:24:45.150Z,99.99
2018-05-06T02:25:45.127Z,99.99
2018-05-06T02:26:45.063Z,99.99
2018-05-06T02:27:45.075Z,99.99
2018-05-06T02:28:44.985Z,99.99
2018-05-06T02:29:44.941Z,99.99
2018-05-06T02:30:44.922Z,99.99
2018-05-06T02:31:44.863Z,99.99
2018-05-06T02:32:44.813Z,99.99
2018-05-06T02:33:44.772Z,99.99
2018-05-06T02:34:44.732Z,99.99
2018-05-06T02:35:44.722Z,99.99
2018-05-06T02:36:44.669Z,99.99
2018-05-06T02:37:44.617Z,99.99
2018-05-06T02:38:44.578Z,99.99
2018-05-06T02:39:44.533Z,99.99
2018-05-06T02:40:44.486Z,99.99
2018-05-06T02:41:44.476Z,99.99
2018-05-06T02:42:44.409Z,99.99
2018-05-06T02:43:44.375Z,99.99
2018-05-06T02:44:44.323Z,99.99
2018-05-06T02:45:44.285Z,99.99
2018-05-06T02:46:44.266Z,99.99
2018-05-06T02:47:44.198Z,99.99
2018-05-06T02:48:44.169Z,99.99
2018-05-06T02:49:44.125Z,99.99
2018-05-06T02:50:44.080Z,99.99
2018-05-06T02:51:53.663Z,99.99
2018-05-06T02:52:43.999Z,99.99
2018-05-06T02:53:43.953Z,99.99
2018-05-06T02:54:43.923Z,99.99
2018-05-06T02:55:43.877Z,99.99
2018-05-06T02:56:43.833Z,99.99
2018-05-06T02:57:43.815Z,99.99
2018-05-06T02:58:43.756Z,99.99
2018-05-06T02:59:43.714Z,99.99
2018-05-06T03:00:43.668Z,99.99
2018-05-06T03:01:43.634Z,99.99
2018-05-06T03:02:43.579Z,99.99
2018-05-06T03:03:43.576Z,99.99
2018-05-06T03:04:43.507Z,99.99
2018-05-06T03:05:43.459Z,99.99
2018-05-06T03:06:43.425Z,99.99
2018-05-06T03:07:43.382Z,99.99
2018-05-06T03:08:43.343Z,99.99
2018-05-06T03:09:43.331Z,99.99
2018-05-06T03:10:43.256Z,99.99
2018-05-06T03:11:43.217Z,99.99
2018-05-06T03:12:43.188Z,99.99
2018-05-06T03:13:43.145Z,99.99
2018-05-06T03:14:51.685Z,99.99
2018-05-06T03:15:43.046Z,99.99
2018-05-06T03:16:43.020Z,99.99
2018-05-06T03:17:42.979Z,99.99
2018-05-06T03:18:42.930Z,99.99
2018-05-06T03:19:42.895Z,99.99
2018-05-06T03:20:42.871Z,99.99
2018-05-06T03:21:42.801Z,99.99
2018-05-06T03:22:42.764Z,99.99
2018-05-06T03:23:42.715Z,99.99
2018-05-06T03:24:42.684Z,99.99
2018-05-06T03:25:42.641Z,99.99
2018-05-06T03:26:42.618Z,99.99
2018-05-06T03:27:42.556Z,99.99
2018-05-06T03:28:42.523Z,99.99
2018-05-06T03:29:42.475Z,99.99
2018-05-06T03:30:42.438Z,99.99
2018-05-06T03:31:42.426Z,99.99
2018-05-06T03:32:42.345Z,99.99
2018-05-06T03:33:42.310Z,99.99
2018-05-06T03:34:42.263Z,99.99
2018-05-06T03:35:42.221Z,99.99
2018-05-06T03:36:42.190Z,99.99
2018-05-06T03:37:51.732Z,99.99
2018-05-06T03:38:42.094Z,99.99
2018-05-06T03:39:42.063Z,99.99
2018-05-06T03:40:42.026Z,99.99
2018-05-06T03:41:41.988Z,99.99
2018-05-06T03:42:41.927Z,99.99
2018-05-06T03:43:41.917Z,99.99
2018-05-06T03:44:41.851Z,99.99
2018-05-06T03:45:41.810Z,99.99
2018-05-06T03:46:41.775Z,99.99
2018-05-06T03:47:41.733Z,99.99
2018-05-06T03:48:41.723Z,99.99
2018-05-06T03:49:41.651Z,99.99
2018-05-06T03:50:41.601Z,99.99
2018-05-06T03:51:41.572Z,99.99
2018-05-06T03:52:41.523Z,99.99
2018-05-06T03:53:48.205Z,99.99
2018-05-06T03:54:41.482Z,99.99
2018-05-06T03:55:41.399Z,99.99
2018-05-06T03:56:41.366Z,99.99
2018-05-06T03:57:41.311Z,99.99
2018-05-06T03:58:41.277Z,99.99
2018-05-06T03:59:41.238Z,99.99
2018-05-06T04:00:51.741Z,99.99
2018-05-06T04:01:41.153Z,99.99
2018-05-06T04:02:41.107Z,99.99
2018-05-06T04:03:41.063Z,99.99
2018-05-06T04:04:41.033Z,99.99
2018-05-06T04:05:41.092Z,99.99
2018-05-06T04:06:40.947Z,99.99
2018-05-06T04:07:40.906Z,99.99
2018-05-06T04:08:40.858Z,99.99
2018-05-06T04:09:40.817Z,99.99
2018-05-06T04:10:40.780Z,99.99
2018-05-06T04:11:40.769Z,99.99
2018-05-06T04:12:40.693Z,99.99
2018-05-06T04:13:40.652Z,99.99
2018-05-06T04:14:40.611Z,99.99
2018-05-06T04:15:40.568Z,99.99
2018-05-06T04:16:40.557Z,99.99
2018-05-06T04:17:40.489Z,99.99
2018-05-06T04:18:40.447Z,99.99
2018-05-06T04:19:40.409Z,99.99
2018-05-06T04:20:40.356Z,99.99
2018-05-06T04:21:40.353Z,99.99
2018-05-06T04:22:40.280Z,99.99
2018-05-06T04:23:40.236Z,99.99
2018-05-06T04:24:40.204Z,99.99
2018-05-06T04:25:40.165Z,99.99
2018-05-06T04:26:40.116Z,99.99
2018-05-06T04:27:40.099Z,99.99
2018-05-06T04:28:40.040Z,99.99
2018-05-06T04:29:39.995Z,99.99
2018-05-06T04:30:39.950Z,99.99
2018-05-06T04:31:39.917Z,99.99
2018-05-06T04:32:39.861Z,99.99
2018-05-06T04:33:39.848Z,99.99
2018-05-06T04:34:39.783Z,99.99
2018-05-06T04:35:39.739Z,99.99
2018-05-06T04:36:39.708Z,99.99
2018-05-06T04:37:39.665Z,99.99
2018-05-06T04:38:39.650Z,99.99
2018-05-06T04:39:39.584Z,99.99
2018-05-06T04:40:39.533Z,99.99
2018-05-06T04:41:39.494Z,99.99
2018-05-06T04:42:39.461Z,99.99
2018-05-06T04:43:39.423Z,99.99
2018-05-06T04:44:39.392Z,99.99
2018-05-06T04:45:39.330Z,99.99
2018-05-06T04:46:39.290Z,99.99
2018-05-06T04:47:39.246Z,99.99
2018-05-06T04:48:39.235Z,99.99
2018-05-06T04:49:39.200Z,99.99
2018-05-06T04:50:39.133Z,99.99
2018-05-06T04:51:39.092Z,99.99
2018-05-06T04:52:39.043Z,99.99
2018-05-06T04:53:39.007Z,99.99
2018-05-06T04:54:38.961Z,99.99
2018-05-06T04:55:38.938Z,99.99
2018-05-06T04:56:38.886Z,99.99
2018-05-06T04:57:38.841Z,99.99
2018-05-06T04:58:38.796Z,99.99
2018-05-06T04:59:38.781Z,99.41
2018-05-06T05:00:38.737Z,93.46
2018-05-06T05:01:38.679Z,87.05
2018-05-06T05:02:38.639Z,81.55
2018-05-06T05:03:38.603Z,76.75
2018-05-06T05:04:38.556Z,73.63
2018-05-06T05:05:38.540Z,71.75
2018-05-06T05:06:38.472Z,70.44
2018-05-06T05:07:38.426Z,67.79
2018-05-06T05:08:38.401Z,65.88
2018-05-06T05:09:38.368Z,64.76
2018-05-06T05:10:38.320Z,63.79
2018-05-06T05:11:38.308Z,62.65
2018-05-06T05:12:38.235Z,63.12
2018-05-06T05:13:38.195Z,62.10
2018-05-06T05:14:38.163Z,61.46
2018-05-06T05:15:38.124Z,60.14
2018-05-06T05:16:38.106Z,59.86
2018-05-06T05:17:38.038Z,59.28
2018-05-06T05:18:38.006Z,59.19
2018-05-06T05:19:37.972Z,59.22
2018-05-06T05:20:37.938Z,58.92
2018-05-06T05:21:37.892Z,57.80
2018-05-06T05:22:37.896Z,58.06
2018-05-06T05:23:37.834Z,57.90
2018-05-06T05:24:37.778Z,57.03
2018-05-06T05:25:37.750Z,57.22
2018-05-06T05:26:37.717Z,56.55
2018-05-06T05:27:37.665Z,56.36
2018-05-06T05:28:37.669Z,56.45
2018-05-06T05:29:37.610Z,56.87
2018-05-06T05:30:37.564Z,56.58
2018-05-06T05:31:37.543Z,55.83
2018-05-06T05:32:37.500Z,55.74
2018-05-06T05:33:37.456Z,55.16
2018-05-06T05:34:37.451Z,54.32
2018-05-06T05:35:37.393Z,53.65
2018-05-06T05:36:37.349Z,53.77
2018-05-06T05:37:37.315Z,52.71
2018-05-06T05:38:37.277Z,53.39
2018-05-06T05:39:37.267Z,53.48
2018-05-06T05:40:37.217Z,53.48
2018-05-06T05:41:37.179Z,52.64
2018-05-06T05:42:37.148Z,52.73
2018-05-06T05:43:37.112Z,52.64
2018-05-06T05:44:37.072Z,51.32
2018-05-06T05:45:37.061Z,51.03
2018-05-06T05:46:37.009Z,50.18
2018-05-06T05:47:36.988Z,50.47
2018-05-06T05:48:36.937Z,50.79
2018-05-06T05:49:36.901Z,50.50
2018-05-06T05:50:36.918Z,50.21
2018-05-06T05:51:36.858Z,50.09
2018-05-06T05:52:36.804Z,50.76
2018-05-06T05:53:36.763Z,49.73
2018-05-06T05:54:36.730Z,49.34
2018-05-06T05:55:36.754Z,49.55
2018-05-06T05:56:36.688Z,49.05
2018-05-06T05:57:36.635Z,49.24
2018-05-06T05:58:36.605Z,48.66
2018-05-06T05:59:36.553Z,48.76
2018-05-06T06:00:36.537Z,48.97
2018-05-06T06:01:36.570Z,48.57
2018-05-06T06:02:36.492Z,49.39
2018-05-06T06:03:36.428Z,48.13
2018-05-06T06:04:36.409Z,47.26
2018-05-06T06:05:36.369Z,47.48
2018-05-06T06:06:36.331Z,46.90
2018-05-06T06:07:36.308Z,47.60
2018-05-06T06:08:36.281Z,45.98
2018-05-06T06:09:36.234Z,44.91
2018-05-06T06:10:36.192Z,46.17
2018-05-06T06:11:36.159Z,44.93
2018-05-06T06:12:36.144Z,44.37
2018-05-06T06:13:36.135Z,44.18
2018-05-06T06:14:36.066Z,44.49
2018-05-06T06:15:36.100Z,43.99
2018-05-06T06:16:35.996Z,43.26
2018-05-06T06:17:35.971Z,42.85
2018-05-06T06:18:35.939Z,41.97
2018-05-06T06:19:35.932Z,41.02
2018-05-06T06:20:35.866Z,41.20
2018-05-06T06:21:35.839Z,41.61
2018-05-06T06:22:35.841Z,41.51
2018-05-06T06:23:35.774Z,41.82
2018-05-06T06:24:35.774Z,40.29
2018-05-06T06:25:35.737Z,41.38
2018-05-06T06:26:35.676Z,39.24
2018-05-06T06:27:35.650Z,38.93
2018-05-06T06:28:35.609Z,39.41
2018-05-06T06:29:35.580Z,38.67
2018-05-06T06:30:35.553Z,35.27
2018-05-06T06:31:35.539Z,35.33
2018-05-06T06:32:35.489Z,36.69
2018-05-06T06:33:35.455Z,35.33
2018-05-06T06:34:35.423Z,35.45
2018-05-06T06:35:35.383Z,33.81
2018-05-06T06:36:35.391Z,31.58
2018-05-06T06:37:35.328Z,34.80
2018-05-06T06:38:35.302Z,35.68
2018-05-06T06:39:35.269Z,35.41
2018-05-06T06:40:35.227Z,34.45
2018-05-06T06:41:35.223Z,29.29
2018-05-06T06:42:35.173Z,31.17
2018-05-06T06:43:35.152Z,30.19
2018-05-06T06:44:35.114Z,31.48
2018-05-06T06:45:35.087Z,31.38
2018-05-06T06:46:35.073Z,31.64
2018-05-06T06:47:35.053Z,31.13
2018-05-06T06:48:34.977Z,32.00
2018-05-06T06:49:34.949Z,32.20
2018-05-06T06:50:34.935Z,31.90
2018-05-06T06:51:34.927Z,31.43
2018-05-06T06:52:34.855Z,30.28
2018-05-06T06:53:45.295Z,31.13
2018-05-06T06:54:34.809Z,31.81
2018-05-06T06:55:34.796Z,30.49
2018-05-06T06:56:34.738Z,27.58
2018-05-06T06:57:34.741Z,28.94
2018-05-06T06:58:34.672Z,27.98
2018-05-06T06:59:34.645Z,27.47
2018-05-06T07:00:34.615Z,30.08
2018-05-06T07:01:34.579Z,30.02
2018-05-06T07:02:34.575Z,29.99
2018-05-06T07:03:34.553Z,28.26
2018-05-06T07:04:34.552Z,29.52
2018-05-06T07:05:34.450Z,29.07
2018-05-06T07:06:43.872Z,27.84
2018-05-06T07:07:34.442Z,28.45
2018-05-06T07:08:34.401Z,29.57
2018-05-06T07:09:34.343Z,30.21
2018-05-06T07:10:34.315Z,31.84
2018-05-06T07:11:34.272Z,33.12
2018-05-06T07:12:34.255Z,31.21
2018-05-06T07:13:34.301Z,29.99
2018-05-06T07:14:34.236Z,29.49
2018-05-06T07:15:34.160Z,29.89
2018-05-06T07:16:34.123Z,28.82
2018-05-06T07:17:34.093Z,30.71
2018-05-06T07:18:34.072Z,31.82
2018-05-06T07:19:34.041Z,30.98
2018-05-06T07:20:34.045Z,28.15
2018-05-06T07:21:33.968Z,29.47
2018-05-06T07:22:33.939Z,30.61
2018-05-06T07:23:33.912Z,31.71
2018-05-06T07:24:33.882Z,33.54
2018-05-06T07:25:33.847Z,33.96
2018-05-06T07:26:33.841Z,32.81
2018-05-06T07:27:33.793Z,34.36
2018-05-06T07:28:33.748Z,34.08
2018-05-06T07:29:33.722Z,33.17
2018-05-06T07:30:33.699Z,34.43
2018-05-06T07:31:33.687Z,34.93
2018-05-06T07:32:33.635Z,33.70
2018-05-06T07:33:33.604Z,31.29
2018-05-06T07:34:33.574Z,31.73
2018-05-06T07:35:33.538Z,33.57
2018-05-06T07:36:33.519Z,33.80
2018-05-06T07:37:33.505Z,33.81
2018-05-06T07:38:33.452Z,31.51
2018-05-06T07:39:33.427Z,30.82
2018-05-06T07:40:33.385Z,31.37
2018-05-06T07:41:33.403Z,31.99
2018-05-06T07:42:33.357Z,34.09
2018-05-06T07:43:33.294Z,34.34
2018-05-06T07:44:33.270Z,34.47
2018-05-06T07:45:33.240Z,34.12
2018-05-06T07:46:33.205Z,34.06
2018-05-06T07:47:33.190Z,33.65
2018-05-06T07:48:33.164Z,32.31
2018-05-06T07:49:33.115Z,31.76
2018-05-06T07:50:33.090Z,30.79
2018-05-06T07:51:33.062Z,31.10
2018-05-06T07:52:33.017Z,31.95
2018-05-06T07:53:33.020Z,32.32
2018-05-06T07:54:32.962Z,32.12
2018-05-06T07:55:32.952Z,32.86
2018-05-06T07:56:32.909Z,32.73
2018-05-06T07:57:32.877Z,32.75
2018-05-06T07:58:32.850Z,32.86
2018-05-06T07:59:32.850Z,35.25
2018-05-06T08:00:32.776Z,33.34
2018-05-06T08:01:32.761Z,34.09
2018-05-06T08:02:32.724Z,34.22
2018-05-06T08:03:32.692Z,35.77
2018-05-06T08:04:32.667Z,34.64
2018-05-06T08:05:32.662Z,34.17
2018-05-06T08:06:32.604Z,31.63
2018-05-06T08:07:32.569Z,32.60
2018-05-06T08:08:32.558Z,32.60
2018-05-06T08:09:32.519Z,32.32
2018-05-06T08:10:32.487Z,33.29
2018-05-06T08:11:32.490Z,32.60
2018-05-06T08:12:32.425Z,32.97
2018-05-06T08:13:32.396Z,32.70
2018-05-06T08:14:32.371Z,31.91
2018-05-06T08:15:32.332Z,32.41
2018-05-06T08:16:42.892Z,33.26
2018-05-06T08:17:32.289Z,32.41
2018-05-06T08:18:32.249Z,32.52
2018-05-06T08:19:32.222Z,30.19
2018-05-06T08:20:32.195Z,31.70
2018-05-06T08:21:32.210Z,32.49
2018-05-06T08:22:32.134Z,32.87
2018-05-06T08:23:32.151Z,32.87
2018-05-06T08:24:32.079Z,32.56
2018-05-06T08:25:32.076Z,33.60
2018-05-06T08:26:32.082Z,33.86
2018-05-06T08:27:31.993Z,33.57
2018-05-06T08:28:32.185Z,34.25
2018-05-06T08:29:31.941Z,35.15
2018-05-06T08:30:31.900Z,35.67
2018-05-06T08:31:31.879Z,32.87
2018-05-06T08:32:31.870Z,32.89
2018-05-06T08:33:31.808Z,32.87
2018-05-06T08:34:31.796Z,32.86
2018-05-06T08:35:31.758Z,33.70
2018-05-06T08:36:31.738Z,34.19
2018-05-06T08:37:31.730Z,34.19
2018-05-06T08:38:31.675Z,35.38
2018-05-06T08:39:31.649Z,33.11
2018-05-06T08:40:31.624Z,30.85
2018-05-06T08:41:31.596Z,33.49
2018-05-06T08:42:31.588Z,32.13
2018-05-06T08:43:31.533Z,31.18
2018-05-06T08:44:31.519Z,32.23
2018-05-06T08:45:31.470Z,32.35
2018-05-06T08:46:31.464Z,30.33
2018-05-06T08:47:31.429Z,30.98
2018-05-06T08:48:31.420Z,31.07
2018-05-06T08:49:31.370Z,31.95
2018-05-06T08:50:31.333Z,30.90
2018-05-06T08:51:31.382Z,31.29
2018-05-06T08:52:31.289Z,31.87
2018-05-06T08:53:31.285Z,32.15
2018-05-06T08:54:31.223Z,31.77
2018-05-06T08:55:31.192Z,30.79
2018-05-06T08:56:31.165Z,32.47
2018-05-06T08:57:31.150Z,30.82
2018-05-06T08:58:31.156Z,30.50
2018-05-06T08:59:31.141Z,32.32
2018-05-06T09:00:31.062Z,32.34
2018-05-06T09:01:31.045Z,32.94
2018-05-06T09:02:31.008Z,31.38
2018-05-06T09:03:30.988Z,33.93
2018-05-06T09:04:30.990Z,33.46
2018-05-06T09:05:30.928Z,31.04
2018-05-06T09:06:30.905Z,31.32
2018-05-06T09:07:31.015Z,31.88
2018-05-06T09:08:30.857Z,32.17
2018-05-06T09:09:30.815Z,30.98
2018-05-06T09:10:30.829Z,31.68
2018-05-06T09:11:30.782Z,32.17
2018-05-06T09:12:30.758Z,32.26
2018-05-06T09:13:30.721Z,32.47
2018-05-06T09:14:30.720Z,32.29
2018-05-06T09:15:30.701Z,31.98
2018-05-06T09:16:30.632Z,32.96
2018-05-06T09:17:30.612Z,33.56
2018-05-06T09:18:30.590Z,33.09
2018-05-06T09:19:30.568Z,32.99
2018-05-06T09:20:30.546Z,33.11
2018-05-06T09:21:30.536Z,31.45
2018-05-06T09:22:30.489Z,31.92
2018-05-06T09:23:30.453Z,31.93
2018-05-06T09:24:30.447Z,32.63
2018-05-06T09:25:30.470Z,31.38
2018-05-06T09:26:30.425Z,32.28
2018-05-06T09:27:30.352Z,30.41
2018-05-06T09:28:30.323Z,32.11
2018-05-06T09:29:30.306Z,32.52
2018-05-06T09:30:30.305Z,32.20
2018-05-06T09:31:30.257Z,33.06
2018-05-06T09:32:30.286Z,34.52
2018-05-06T09:33:30.282Z,33.73
2018-05-06T09:34:30.194Z,32.21
2018-05-06T09:35:30.156Z,31.95
2018-05-06T09:36:30.133Z,30.70
2018-05-06T09:37:30.141Z,30.57
2018-05-06T09:38:30.090Z,30.88
2018-05-06T09:39:30.059Z,30.78
2018-05-06T09:40:30.020Z,30.65
2018-05-06T09:41:30.001Z,32.31
2018-05-06T09:42:29.981Z,32.78
2018-05-06T09:43:29.987Z,31.71
2018-05-06T09:44:29.944Z,32.02
2018-05-06T09:45:29.903Z,29.86
2018-05-06T09:46:29.880Z,31.79
2018-05-06T09:47:29.883Z,31.13
2018-05-06T09:48:29.854Z,30.83
2018-05-06T09:49:29.805Z,32.20
2018-05-06T09:50:29.798Z,31.90
2018-05-06T09:51:29.764Z,31.71
2018-05-06T09:52:29.741Z,32.20
2018-05-06T09:53:29.732Z,33.09
2018-05-06T09:54:29.733Z,31.25
2018-05-06T09:55:29.657Z,30.55
2018-05-06T09:56:29.659Z,28.25
2018-05-06T09:57:29.622Z,30.29
2018-05-06T09:58:29.616Z,30.96
2018-05-06T09:59:29.580Z,30.67
2018-05-06T10:00:29.541Z,29.66
2018-05-06T10:01:29.537Z,29.96
2018-05-06T10:02:29.505Z,31.22
2018-05-06T10:03:29.530Z,31.90
2018-05-06T10:04:29.455Z,33.77
2018-05-06T10:05:29.433Z,28.80
2018-05-06T10:06:29.406Z,27.65
2018-05-06T10:07:29.375Z,27.73
2018-05-06T10:08:29.392Z,30.08
2018-05-06T10:09:29.341Z,28.64
2018-05-06T10:10:29.332Z,29.00
2018-05-06T10:11:29.298Z,31.06
2018-05-06T10:12:29.251Z,29.13
2018-05-06T10:13:29.229Z,27.86
2018-05-06T10:14:29.254Z,27.18
2018-05-06T10:15:29.210Z,27.47
2018-05-06T10:16:29.180Z,31.24
2018-05-06T10:17:29.168Z,31.82
2018-05-06T10:18:29.142Z,32.00
2018-05-06T10:19:29.086Z,34.45
2018-05-06T10:20:29.082Z,33.78
2018-05-06T10:21:29.043Z,33.49
2018-05-06T10:22:29.041Z,33.09
2018-05-06T10:23:29.010Z,34.24
2018-05-06T10:24:28.982Z,29.06
2018-05-06T10:25:28.987Z,29.35
2018-05-06T10:26:28.926Z,30.22
2018-05-06T10:27:28.942Z,30.41
2018-05-06T10:28:28.889Z,29.65
2018-05-06T10:29:28.866Z,28.32
2018-05-06T10:30:28.858Z,28.13
2018-05-06T10:31:28.828Z,27.69
2018-05-06T10:32:28.779Z,27.89
2018-05-06T10:33:28.763Z,29.85
2018-05-06T10:34:28.761Z,30.12
2018-05-06T10:35:28.730Z,29.46
2018-05-06T10:36:28.709Z,29.93
2018-05-06T10:37:28.692Z,29.36
2018-05-06T10:38:28.713Z,30.25
2018-05-06T10:39:28.611Z,27.70
2018-05-06T10:40:28.581Z,26.72
2018-05-06T10:41:28.571Z,27.00
2018-05-06T10:42:28.639Z,28.76
2018-05-06T10:43:28.537Z,28.11
2018-05-06T10:44:28.563Z,28.09
2018-05-06T10:45:28.479Z,27.82
2018-05-06T10:46:28.444Z,27.72
2018-05-06T10:47:28.427Z,26.84
2018-05-06T10:48:28.439Z,25.67
2018-05-06T10:49:28.372Z,25.54
2018-05-06T10:50:28.392Z,27.00
2018-05-06T10:51:28.321Z,28.57
2018-05-06T10:52:28.296Z,25.08
2018-05-06T10:53:28.309Z,24.02
2018-05-06T10:54:28.253Z,24.11
2018-05-06T10:55:28.237Z,25.76
2018-05-06T10:56:28.213Z,26.83
2018-05-06T10:57:28.173Z,26.86
2018-05-06T10:58:28.157Z,25.98
2018-05-06T10:59:28.146Z,25.99
2018-05-06T11:00:28.112Z,26.97
2018-05-06T11:01:28.079Z,27.06
2018-05-06T11:02:28.052Z,24.44
2018-05-06T11:03:28.171Z,26.98
2018-05-06T11:04:37.984Z,25.03
2018-05-06T11:05:27.992Z,27.00
2018-05-06T11:06:27.966Z,24.27
2018-05-06T11:07:27.940Z,25.81
2018-05-06T11:08:27.917Z,26.01
2018-05-06T11:09:27.892Z,27.19
2018-05-06T11:10:27.987Z,24.95
2018-05-06T11:11:27.842Z,24.74
2018-05-06T11:12:27.833Z,25.43
2018-05-06T11:13:27.808Z,25.24
2018-05-06T11:14:27.811Z,26.01
2018-05-06T11:15:27.787Z,24.16
2018-05-06T11:16:27.735Z,24.26
2018-05-06T11:17:27.720Z,23.08
2018-05-06T11:18:27.702Z,24.84
2018-05-06T11:19:27.678Z,25.62
2018-05-06T11:20:27.645Z,25.03
2018-05-06T11:21:27.727Z,24.24
2018-05-06T11:22:27.609Z,25.29
2018-05-06T11:23:27.580Z,24.61
2018-05-06T11:24:27.562Z,24.18
2018-05-06T11:25:27.543Z,24.19
2018-05-06T11:26:27.522Z,24.58
2018-05-06T11:27:27.532Z,24.97
2018-05-06T11:28:27.472Z,26.83
2018-05-06T11:29:27.445Z,27.23
2018-05-06T11:30:27.429Z,25.59
2018-05-06T11:31:27.406Z,24.52
2018-05-06T11:32:27.383Z,25.80
2018-05-06T11:33:27.475Z,25.02
2018-05-06T11:34:27.345Z,26.19
2018-05-06T11:35:27.316Z,25.41
2018-05-06T11:36:27.296Z,24.63
2018-05-06T11:37:27.277Z,23.25
2018-05-06T11:38:27.286Z,23.45
2018-05-06T11:39:27.241Z,24.12
2018-05-06T11:40:27.236Z,25.38
2018-05-06T11:41:27.232Z,24.82
2018-05-06T11:42:27.168Z,22.97
2018-05-06T11:43:27.138Z,24.04
2018-05-06T11:44:27.146Z,24.13
2018-05-06T11:45:27.104Z,24.33
2018-05-06T11:46:27.066Z,25.49
2018-05-06T11:47:27.054Z,24.62
2018-05-06T11:48:27.033Z,24.72
2018-05-06T11:49:27.012Z,25.48
2018-05-06T11:50:27.019Z,25.58
2018-05-06T11:51:26.961Z,24.32
2018-05-06T11:52:26.936Z,24.80
2018-05-06T11:53:26.909Z,24.71
2018-05-06T11:54:26.894Z,25.10
2018-05-06T11:55:26.900Z,24.73
2018-05-06T11:56:26.854Z,24.83
2018-05-06T11:57:26.835Z,24.34
2018-05-06T11:58:26.820Z,24.15
2018-05-06T11:59:26.779Z,24.04
2018-05-06T12:00:26.757Z,24.99
2018-05-06T12:01:26.756Z,25.78
2018-05-06T12:02:26.853Z,25.78
2018-05-06T12:03:26.691Z,24.80
2018-05-06T12:04:26.669Z,25.29
2018-05-06T12:05:26.664Z,26.07
2018-05-06T12:06:26.618Z,25.69
2018-05-06T12:07:26.596Z,26.86
2018-05-06T12:08:26.576Z,25.68
2018-05-06T12:09:26.563Z,26.08
2018-05-06T12:10:26.564Z,25.59
2018-05-06T12:11:26.513Z,27.55
2018-05-06T12:12:26.483Z,26.48
2018-05-06T12:13:26.456Z,26.58
2018-05-06T12:14:26.439Z,26.58
2018-05-06T12:15:26.417Z,25.42
2018-05-06T12:16:26.415Z,25.23
2018-05-06T12:17:26.379Z,24.93
2018-05-06T12:18:26.344Z,25.41
2018-05-06T12:19:26.321Z,25.60
2018-05-06T12:20:26.306Z,27.45
2018-05-06T12:21:26.320Z,25.99
2018-05-06T12:22:26.267Z,26.87
2018-05-06T12:23:26.239Z,27.06
2018-05-06T12:24:26.212Z,27.94
2018-05-06T12:25:26.184Z,27.75
2018-05-06T12:26:26.196Z,27.94
2018-05-06T12:27:26.145Z,27.45
2018-05-06T12:28:26.185Z,28.33
2018-05-06T12:29:26.109Z,27.93
2018-05-06T12:30:26.088Z,28.13
2018-05-06T12:31:26.062Z,27.64
2018-05-06T12:32:26.070Z,27.04
2018-05-06T12:33:26.011Z,27.51
2018-05-06T12:34:26.006Z,27.69
2018-05-06T12:35:25.983Z,26.82
2018-05-06T12:36:25.960Z,27.79
2018-05-06T12:37:25.926Z,28.64
2018-05-06T12:38:25.939Z,30.50
2018-05-06T12:39:25.887Z,30.50
2018-05-06T12:40:25.865Z,30.21
2018-05-06T12:41:25.852Z,30.50
2018-05-06T12:42:25.823Z,30.00
2018-05-06T12:43:25.843Z,29.41
2018-05-06T12:44:25.770Z,30.09
2018-05-06T12:45:25.746Z,30.77
2018-05-06T12:46:25.725Z,31.16
2018-05-06T12:47:25.708Z,32.04
2018-05-06T12:48:25.720Z,32.73
2018-05-06T12:49:25.710Z,33.02
2018-05-06T12:50:25.629Z,33.02
2018-05-06T12:51:25.613Z,33.80
2018-05-06T12:52:25.591Z,33.61